sensor_id;sensor_type;location;lat;lon;timestamp;pressure;altitude;pressure_sealevel;temperature;humidity
72798;BME280;61084;55.816;37.036;2023-03-18T00:02:17;101162.16;;;-1.24;48.38
72798;BME280;61084;55.816;37.036;2023-03-18T00:04:43;101160.41;;;-1.25;48.37
72798;BME280;61084;55.816;37.036;2023-03-18T00:07:12;101156.91;;;-1.27;48.34
72798;BME280;61084;55.816;37.036;2023-03-18T00:09:39;101158.56;;;-1.31;48.29
72798;BME280;61084;55.816;37.036;2023-03-18T00:12:04;101158.59;;;-1.29;48.29
72798;BME280;61084;55.816;37.036;2023-03-18T00:14:31;101162.00;;;-1.30;48.40
72798;BME280;61084;55.816;37.036;2023-03-18T00:17:05;101155.13;;;-1.30;48.58
72798;BME280;61084;55.816;37.036;2023-03-18T00:19:31;101159.34;;;-1.35;48.10
72798;BME280;61084;55.816;37.036;2023-03-18T00:22:00;101140.22;;;-1.44;48.33
72798;BME280;61084;55.816;37.036;2023-03-18T00:24:26;101156.69;;;-1.38;48.22
72798;BME280;61084;55.816;37.036;2023-03-18T00:27:10;101160.97;;;-1.37;48.33
72798;BME280;61084;55.816;37.036;2023-03-18T00:29:36;101165.28;;;-1.37;48.19
72798;BME280;61084;55.816;37.036;2023-03-18T00:32:02;101158.25;;;-1.43;48.31
72798;BME280;61084;55.816;37.036;2023-03-18T00:34:40;101165.16;;;-1.42;48.39
72798;BME280;61084;55.816;37.036;2023-03-18T00:37:06;101162.53;;;-1.43;48.49
72798;BME280;61084;55.816;37.036;2023-03-18T00:39:33;101163.28;;;-1.49;48.36
72798;BME280;61084;55.816;37.036;2023-03-18T00:42:00;101163.31;;;-1.47;48.39
72798;BME280;61084;55.816;37.036;2023-03-18T00:44:32;101176.13;;;-1.50;48.31
72798;BME280;61084;55.816;37.036;2023-03-18T00:46:58;101171.78;;;-1.53;48.51
72798;BME280;61084;55.816;37.036;2023-03-18T00:49:25;101174.31;;;-1.55;48.61
72798;BME280;61084;55.816;37.036;2023-03-18T00:51:54;101164.81;;;-1.57;48.84
72798;BME280;61084;55.816;37.036;2023-03-18T00:54:29;101170.75;;;-1.60;48.51
72798;BME280;61084;55.816;37.036;2023-03-18T00:57:19;101170.75;;;-1.60;48.71
72798;BME280;61084;55.816;37.036;2023-03-18T00:59:50;101167.16;;;-1.66;48.84
72798;BME280;61084;55.816;37.036;2023-03-18T01:02:19;101179.22;;;-1.64;48.99
72798;BME280;61084;55.816;37.036;2023-03-18T01:04:49;101168.03;;;-1.66;49.14
72798;BME280;61084;55.816;37.036;2023-03-18T01:07:21;101176.66;;;-1.64;49.19
72798;BME280;61084;55.816;37.036;2023-03-18T01:09:56;101179.19;;;-1.65;49.21
72798;BME280;61084;55.816;37.036;2023-03-18T01:12:27;101186.00;;;-1.67;49.29
72798;BME280;61084;55.816;37.036;2023-03-18T01:15:00;101188.50;;;-1.70;49.22
72798;BME280;61084;55.816;37.036;2023-03-18T01:17:30;101185.88;;;-1.72;49.25
72798;BME280;61084;55.816;37.036;2023-03-18T01:19:59;101188.44;;;-1.72;49.20
72798;BME280;61084;55.816;37.036;2023-03-18T01:22:29;101192.69;;;-1.74;49.39
72798;BME280;61084;55.816;37.036;2023-03-18T01:24:55;101197.78;;;-1.77;49.16
72798;BME280;61084;55.816;37.036;2023-03-18T01:27:28;101194.25;;;-1.80;49.30
72798;BME280;61084;55.816;37.036;2023-03-18T01:29:56;101197.66;;;-1.81;49.22
72798;BME280;61084;55.816;37.036;2023-03-18T01:32:22;101195.00;;;-1.84;49.20
72798;BME280;61084;55.816;37.036;2023-03-18T01:34:48;101195.78;;;-1.87;49.08
72798;BME280;61084;55.816;37.036;2023-03-18T01:37:14;101191.47;;;-1.89;49.35
72798;BME280;61084;55.816;37.036;2023-03-18T01:39:44;101196.53;;;-1.91;49.62
72798;BME280;61084;55.816;37.036;2023-03-18T01:42:17;101203.44;;;-1.90;49.63
72798;BME280;61084;55.816;37.036;2023-03-18T01:44:43;101213.63;;;-1.94;49.44
72798;BME280;61084;55.816;37.036;2023-03-18T01:47:12;101204.13;;;-1.95;49.62
72798;BME280;61084;55.816;37.036;2023-03-18T01:49:51;101214.44;;;-1.95;49.74
72798;BME280;61084;55.816;37.036;2023-03-18T01:52:25;101207.34;;;-2.04;49.47
72798;BME280;61084;55.816;37.036;2023-03-18T01:54:55;101220.28;;;-2.02;49.28
72798;BME280;61084;55.816;37.036;2023-03-18T01:57:29;101223.63;;;-2.05;49.53
72798;BME280;61084;55.816;37.036;2023-03-18T01:59:59;101213.22;;;-2.09;49.49
72798;BME280;61084;55.816;37.036;2023-03-18T02:02:29;101232.16;;;-2.06;49.60
72798;BME280;61084;55.816;37.036;2023-03-18T02:05:00;101227.88;;;-2.05;49.60
72798;BME280;61084;55.816;37.036;2023-03-18T02:07:32;101226.13;;;-2.06;49.69
72798;BME280;61084;55.816;37.036;2023-03-18T02:10:11;101229.47;;;-2.10;49.76
72798;BME280;61084;55.816;37.036;2023-03-18T02:12:42;101237.25;;;-2.09;49.68
72798;BME280;61084;55.816;37.036;2023-03-18T02:15:15;101235.44;;;-2.11;49.59
72798;BME280;61084;55.816;37.036;2023-03-18T02:17:46;101237.03;;;-2.15;49.60
72798;BME280;61084;55.816;37.036;2023-03-18T02:23:11;101248.94;;;-2.20;49.72
72798;BME280;61084;55.816;37.036;2023-03-18T02:25:54;101249.56;;;-2.27;49.65
72798;BME280;61084;55.816;37.036;2023-03-18T02:28:26;101250.38;;;-2.28;49.62
72798;BME280;61084;55.816;37.036;2023-03-18T02:31:01;101256.34;;;-2.31;49.86
72798;BME280;61084;55.816;37.036;2023-03-18T02:33:33;101257.97;;;-2.33;49.78
72798;BME280;61084;55.816;37.036;2023-03-18T02:36:04;101260.44;;;-2.37;49.80
72798;BME280;61084;55.816;37.036;2023-03-18T02:38:39;101269.78;;;-2.39;49.73
72798;BME280;61084;55.816;37.036;2023-03-18T02:41:15;101267.16;;;-2.41;49.84
72798;BME280;61084;55.816;37.036;2023-03-18T02:43:44;101267.03;;;-2.45;49.95
72798;BME280;61084;55.816;37.036;2023-03-18T02:49:07;101274.56;;;-2.51;49.35
72798;BME280;61084;55.816;37.036;2023-03-18T02:51:35;101271.91;;;-2.54;50.38
72798;BME280;61084;55.816;37.036;2023-03-18T02:56:30;101272.63;;;-2.58;50.05
72798;BME280;61084;55.816;37.036;2023-03-18T02:58:56;101276.09;;;-2.58;50.11
72798;BME280;61084;55.816;37.036;2023-03-18T03:01:22;101272.72;;;-2.57;50.06
72798;BME280;61084;55.816;37.036;2023-03-18T03:03:59;101279.44;;;-2.60;50.19
72798;BME280;61084;55.816;37.036;2023-03-18T03:06:26;101284.63;;;-2.59;50.47
72798;BME280;61084;55.816;37.036;2023-03-18T03:08:52;101282.03;;;-2.59;50.19
72798;BME280;61084;55.816;37.036;2023-03-18T03:11:25;101283.69;;;-2.61;50.43
72798;BME280;61084;55.816;37.036;2023-03-18T03:13:59;101287.09;;;-2.62;50.31
72798;BME280;61084;55.816;37.036;2023-03-18T03:16:40;101288.00;;;-2.61;50.38
72798;BME280;61084;55.816;37.036;2023-03-18T03:19:17;101290.41;;;-2.66;50.43
72798;BME280;61084;55.816;37.036;2023-03-18T03:21:48;101291.16;;;-2.70;50.37
72798;BME280;61084;55.816;37.036;2023-03-18T03:24:19;101298.78;;;-2.71;50.52
72798;BME280;61084;55.816;37.036;2023-03-18T03:26:46;101293.47;;;-2.77;50.29
72798;BME280;61084;55.816;37.036;2023-03-18T03:29:21;101295.03;;;-2.82;50.56
72798;BME280;61084;55.816;37.036;2023-03-18T03:31:50;101281.25;;;-2.84;50.52
72798;BME280;61084;55.816;37.036;2023-03-18T03:34:19;101292.41;;;-2.84;50.85
72798;BME280;61084;55.816;37.036;2023-03-18T03:36:59;101297.50;;;-2.85;50.48
72798;BME280;61084;55.816;37.036;2023-03-18T03:39:25;101298.31;;;-2.86;50.95
72798;BME280;61084;55.816;37.036;2023-03-18T03:41:52;101296.50;;;-2.90;50.95
72798;BME280;61084;55.816;37.036;2023-03-18T03:44:20;101302.47;;;-2.91;51.07
72798;BME280;61084;55.816;37.036;2023-03-18T03:46:48;101309.28;;;-2.92;50.99
72798;BME280;61084;55.816;37.036;2023-03-18T03:49:14;101299.78;;;-2.94;51.02
72798;BME280;61084;55.816;37.036;2023-03-18T03:51:40;101301.53;;;-2.93;51.15
72798;BME280;61084;55.816;37.036;2023-03-18T03:54:06;101305.88;;;-2.91;51.12
72798;BME280;61084;55.816;37.036;2023-03-18T03:56:32;101301.75;;;-2.87;51.17
72798;BME280;61084;55.816;37.036;2023-03-18T03:58:59;101295.75;;;-2.86;51.08
72798;BME280;61084;55.816;37.036;2023-03-18T04:01:44;101301.00;;;-2.83;51.28
72798;BME280;61084;55.816;37.036;2023-03-18T04:04:10;101304.50;;;-2.81;51.26
72798;BME280;61084;55.816;37.036;2023-03-18T04:06:37;101301.06;;;-2.80;51.26
72798;BME280;61084;55.816;37.036;2023-03-18T04:09:03;101308.13;;;-2.75;51.40
72798;BME280;61084;55.816;37.036;2023-03-18T04:11:30;101304.84;;;-2.69;51.17
72798;BME280;61084;55.816;37.036;2023-03-18T04:13:56;101304.13;;;-2.65;51.12
72798;BME280;61084;55.816;37.036;2023-03-18T04:16:22;101305.09;;;-2.62;51.08
72798;BME280;61084;55.816;37.036;2023-03-18T04:18:50;101314.59;;;-2.59;51.26
72798;BME280;61084;55.816;37.036;2023-03-18T04:21:26;101313.00;;;-2.56;51.22
72798;BME280;61084;55.816;37.036;2023-03-18T04:23:54;101311.25;;;-2.57;51.09
72798;BME280;61084;55.816;37.036;2023-03-18T04:26:20;101312.88;;;-2.59;51.36
72798;BME280;61084;55.816;37.036;2023-03-18T04:28:46;101311.34;;;-2.54;51.17
72798;BME280;61084;55.816;37.036;2023-03-18T04:31:14;101318.38;;;-2.48;51.38
72798;BME280;61084;55.816;37.036;2023-03-18T04:33:41;101321.94;;;-2.43;51.48
72798;BME280;61084;55.816;37.036;2023-03-18T04:36:08;101318.63;;;-2.39;51.21
72798;BME280;61084;55.816;37.036;2023-03-18T04:38:41;101316.19;;;-2.35;51.27
72798;BME280;61084;55.816;37.036;2023-03-18T04:41:10;101322.38;;;-2.28;51.43
72798;BME280;61084;55.816;37.036;2023-03-18T04:43:40;101320.06;;;-2.20;51.50
72798;BME280;61084;55.816;37.036;2023-03-18T04:46:08;101327.28;;;-2.07;51.66
72798;BME280;61084;55.816;37.036;2023-03-18T04:48:38;101327.50;;;-2.00;51.29
72798;BME280;61084;55.816;37.036;2023-03-18T04:51:07;101331.22;;;-1.90;51.39
72798;BME280;61084;55.816;37.036;2023-03-18T04:53:40;101332.28;;;-1.82;51.40
72798;BME280;61084;55.816;37.036;2023-03-18T04:56:26;101329.94;;;-1.75;51.42
72798;BME280;61084;55.816;37.036;2023-03-18T04:59:02;101343.22;;;-1.60;51.40
72798;BME280;61084;55.816;37.036;2023-03-18T05:01:35;101335.78;;;-1.49;51.17
72798;BME280;61084;55.816;37.036;2023-03-18T05:04:03;101345.53;;;-1.37;51.10
72798;BME280;61084;55.816;37.036;2023-03-18T05:06:50;101343.13;;;-1.30;50.97
72798;BME280;61084;55.816;37.036;2023-03-18T05:09:20;101347.75;;;-1.18;51.00
72798;BME280;61084;55.816;37.036;2023-03-18T05:11:46;101350.50;;;-1.11;50.96
72798;BME280;61084;55.816;37.036;2023-03-18T05:14:20;101354.19;;;-1.01;50.88
72798;BME280;61084;55.816;37.036;2023-03-18T05:16:50;101350.16;;;-0.92;50.83
72798;BME280;61084;55.816;37.036;2023-03-18T05:19:26;101359.91;;;-0.79;50.81
72798;BME280;61084;55.816;37.036;2023-03-18T05:22:11;101346.41;;;-0.68;50.82
72798;BME280;61084;55.816;37.036;2023-03-18T05:24:51;101359.72;;;-0.50;50.72
72798;BME280;61084;55.816;37.036;2023-03-18T05:27:22;101363.38;;;-0.41;50.84
72798;BME280;61084;55.816;37.036;2023-03-18T05:30:09;101368.03;;;-0.26;50.48
72798;BME280;61084;55.816;37.036;2023-03-18T05:33:05;101366.59;;;-0.12;50.28
72798;BME280;61084;55.816;37.036;2023-03-18T05:35:49;101370.28;;;-0.01;50.50
72798;BME280;61084;55.816;37.036;2023-03-18T05:38:22;101367.09;;;0.11;50.26
72798;BME280;61084;55.816;37.036;2023-03-18T05:40:52;101368.19;;;0.23;49.99
72798;BME280;61084;55.816;37.036;2023-03-18T05:43:26;101368.44;;;0.35;50.21
72798;BME280;61084;55.816;37.036;2023-03-18T05:46:04;101364.41;;;0.48;49.83
72798;BME280;61084;55.816;37.036;2023-03-18T05:48:54;101372.38;;;0.60;49.62
72798;BME280;61084;55.816;37.036;2023-03-18T05:51:28;101376.03;;;0.72;49.57
72798;BME280;61084;55.816;37.036;2023-03-18T05:53:58;101374.53;;;0.85;49.50
72798;BME280;61084;55.816;37.036;2023-03-18T05:56:32;101367.00;;;0.96;49.28
72798;BME280;61084;55.816;37.036;2023-03-18T05:59:02;101366.31;;;1.06;49.29
72798;BME280;61084;55.816;37.036;2023-03-18T06:01:56;101369.09;;;1.18;49.19
72798;BME280;61084;55.816;37.036;2023-03-18T06:04:22;101369.25;;;1.28;49.19
72798;BME280;61084;55.816;37.036;2023-03-18T06:06:54;101369.44;;;1.39;48.85
72798;BME280;61084;55.816;37.036;2023-03-18T06:09:24;101373.91;;;1.50;49.07
72798;BME280;61084;55.816;37.036;2023-03-18T06:11:51;101367.19;;;1.62;48.82
72798;BME280;61084;55.816;37.036;2023-03-18T06:14:17;101367.31;;;1.71;48.81
72798;BME280;61084;55.816;37.036;2023-03-18T06:16:44;101371.75;;;1.79;48.80
72798;BME280;61084;55.816;37.036;2023-03-18T06:19:14;101371.88;;;1.87;48.67
72798;BME280;61084;55.816;37.036;2023-03-18T06:21:42;101372.03;;;1.99;48.78
72798;BME280;61084;55.816;37.036;2023-03-18T06:24:08;101374.75;;;2.09;48.55
72798;BME280;61084;55.816;37.036;2023-03-18T06:26:37;101370.63;;;2.23;48.39
72798;BME280;61084;55.816;37.036;2023-03-18T06:29:06;101373.34;;;2.36;48.11
72798;BME280;61084;55.816;37.036;2023-03-18T06:31:33;101368.28;;;2.45;48.21
72798;BME280;61084;55.816;37.036;2023-03-18T06:34:03;101375.25;;;2.50;47.89
72798;BME280;61084;55.816;37.036;2023-03-18T06:36:36;101369.28;;;2.57;48.11
72798;BME280;61084;55.816;37.036;2023-03-18T06:39:11;101371.09;;;2.64;47.89
72798;BME280;61084;55.816;37.036;2023-03-18T06:41:39;101372.97;;;2.77;47.57
72798;BME280;61084;55.816;37.036;2023-03-18T06:44:24;101378.34;;;2.95;47.40
72798;BME280;61084;55.816;37.036;2023-03-18T06:46:52;101376.66;;;3.00;47.56
72798;BME280;61084;55.816;37.036;2023-03-18T06:49:18;101379.31;;;3.10;47.37
72798;BME280;61084;55.816;37.036;2023-03-18T06:51:51;101390.72;;;3.27;47.15
72798;BME280;61084;55.816;37.036;2023-03-18T06:54:17;101390.84;;;3.39;46.82
72798;BME280;61084;55.816;37.036;2023-03-18T06:56:43;101391.78;;;3.53;47.06
72798;BME280;61084;55.816;37.036;2023-03-18T06:59:18;101385.00;;;3.68;47.05
72798;BME280;61084;55.816;37.036;2023-03-18T07:01:46;101392.00;;;3.80;46.41
72798;BME280;61084;55.816;37.036;2023-03-18T07:04:16;101386.84;;;3.88;46.61
72798;BME280;61084;55.816;37.036;2023-03-18T07:06:43;101386.94;;;4.00;46.31
72798;BME280;61084;55.816;37.036;2023-03-18T07:09:10;101387.81;;;4.09;45.79
72798;BME280;61084;55.816;37.036;2023-03-18T07:11:38;101386.16;;;4.20;46.04
72798;BME280;61084;55.816;37.036;2023-03-18T07:14:10;101388.78;;;4.26;45.88
72798;BME280;61084;55.816;37.036;2023-03-18T07:16:40;101386.16;;;4.26;45.53
72798;BME280;61084;55.816;37.036;2023-03-18T07:19:06;101381.00;;;4.29;45.48
72798;BME280;61084;55.816;37.036;2023-03-18T07:21:32;101376.72;;;4.39;44.52
72798;BME280;61084;55.816;37.036;2023-03-18T07:24:01;101375.84;;;4.44;45.10
72798;BME280;61084;55.816;37.036;2023-03-18T07:26:29;101374.13;;;4.46;45.57
72798;BME280;61084;55.816;37.036;2023-03-18T07:28:57;101382.84;;;4.56;45.17
72798;BME280;61084;55.816;37.036;2023-03-18T07:31:23;101381.13;;;4.56;45.89
72798;BME280;61084;55.816;37.036;2023-03-18T07:33:53;101376.78;;;4.65;44.23
72798;BME280;61084;55.816;37.036;2023-03-18T07:36:18;101384.63;;;4.75;45.66
72798;BME280;61084;55.816;37.036;2023-03-18T07:38:45;101391.56;;;4.84;44.60
72798;BME280;61084;55.816;37.036;2023-03-18T07:41:10;101392.47;;;4.90;44.72
72798;BME280;61084;55.816;37.036;2023-03-18T07:43:37;101384.69;;;4.98;45.54
72798;BME280;61084;55.816;37.036;2023-03-18T07:46:05;101391.59;;;5.05;44.05
72798;BME280;61084;55.816;37.036;2023-03-18T07:48:31;101386.41;;;5.06;45.02
72798;BME280;61084;55.816;37.036;2023-03-18T07:50:59;101381.22;;;5.14;43.44
72798;BME280;61084;55.816;37.036;2023-03-18T07:53:26;101381.22;;;5.29;43.40
72798;BME280;61084;55.816;37.036;2023-03-18T07:55:53;101377.75;;;5.42;42.55
72798;BME280;61084;55.816;37.036;2023-03-18T07:58:19;101378.59;;;5.53;42.77
72798;BME280;61084;55.816;37.036;2023-03-18T08:00:45;101377.72;;;5.66;43.27
72798;BME280;61084;55.816;37.036;2023-03-18T08:03:11;101377.72;;;5.69;42.35
72798;BME280;61084;55.816;37.036;2023-03-18T08:05:38;101374.25;;;5.78;41.63
72798;BME280;61084;55.816;37.036;2023-03-18T08:08:05;101376.00;;;5.86;42.50
72798;BME280;61084;55.816;37.036;2023-03-18T08:10:31;101377.72;;;5.92;43.30
72798;BME280;61084;55.816;37.036;2023-03-18T08:12:58;101378.56;;;5.89;41.50
72798;BME280;61084;55.816;37.036;2023-03-18T08:15:23;101378.59;;;5.95;40.84
72798;BME280;61084;55.816;37.036;2023-03-18T08:17:51;101372.47;;;6.04;43.86
72798;BME280;61084;55.816;37.036;2023-03-18T08:20:18;101372.47;;;6.05;40.27
72798;BME280;61084;55.816;37.036;2023-03-18T08:22:44;101374.19;;;6.08;40.86
72798;BME280;61084;55.816;37.036;2023-03-18T08:25:11;101370.72;;;6.15;41.73
72798;BME280;61084;55.816;37.036;2023-03-18T08:27:41;101367.22;;;6.19;40.60
72798;BME280;61084;55.816;37.036;2023-03-18T08:30:08;101370.66;;;6.30;40.95
72798;BME280;61084;55.816;37.036;2023-03-18T08:32:35;101365.41;;;6.29;39.05
72798;BME280;61084;55.816;37.036;2023-03-18T08:35:02;101366.31;;;6.26;39.32
72798;BME280;61084;55.816;37.036;2023-03-18T08:37:29;101368.00;;;6.38;41.57
72798;BME280;61084;55.816;37.036;2023-03-18T08:39:55;101367.13;;;6.37;42.63
72798;BME280;61084;55.816;37.036;2023-03-18T08:42:21;101372.38;;;6.31;40.61
72798;BME280;61084;55.816;37.036;2023-03-18T08:44:47;101363.69;;;6.29;42.19
72798;BME280;61084;55.816;37.036;2023-03-18T08:47:13;101367.16;;;6.30;39.61
72798;BME280;61084;55.816;37.036;2023-03-18T08:49:39;101367.13;;;6.36;39.72
72798;BME280;61084;55.816;37.036;2023-03-18T08:52:08;101363.66;;;6.41;39.35
72798;BME280;61084;55.816;37.036;2023-03-18T08:54:35;101361.00;;;6.47;42.81
72798;BME280;61084;55.816;37.036;2023-03-18T08:57:13;101354.03;;;6.49;40.08
72798;BME280;61084;55.816;37.036;2023-03-18T08:59:46;101359.28;;;6.48;40.02
72798;BME280;61084;55.816;37.036;2023-03-18T09:02:13;101355.78;;;6.49;39.69
72798;BME280;61084;55.816;37.036;2023-03-18T09:04:44;101352.31;;;6.50;39.68
72798;BME280;61084;55.816;37.036;2023-03-18T09:07:12;101355.72;;;6.61;39.60
72798;BME280;61084;55.816;37.036;2023-03-18T09:09:42;101347.81;;;6.76;38.19
72798;BME280;61084;55.816;37.036;2023-03-18T09:12:11;101351.22;;;6.84;38.69
72798;BME280;61084;55.816;37.036;2023-03-18T09:14:39;101351.19;;;6.90;40.12
72798;BME280;61084;55.816;37.036;2023-03-18T09:17:07;101345.94;;;6.90;39.20
72798;BME280;61084;55.816;37.036;2023-03-18T09:19:52;101345.91;;;6.96;39.33
72798;BME280;61084;55.816;37.036;2023-03-18T09:22:18;101346.72;;;7.03;39.48
72798;BME280;61084;55.816;37.036;2023-03-18T09:24:43;101340.63;;;7.07;39.08
72798;BME280;61084;55.816;37.036;2023-03-18T09:27:09;101342.34;;;7.08;39.32
72798;BME280;61084;55.816;37.036;2023-03-18T09:29:35;101346.75;;;7.04;41.02
72798;BME280;61084;55.816;37.036;2023-03-18T09:32:01;101343.22;;;7.05;37.76
72798;BME280;61084;55.816;37.036;2023-03-18T09:34:27;101339.66;;;7.18;37.91
72798;BME280;61084;55.816;37.036;2023-03-18T09:36:53;101340.47;;;7.25;37.93
72798;BME280;61084;55.816;37.036;2023-03-18T09:39:19;101334.28;;;7.36;37.65
72798;BME280;61084;55.816;37.036;2023-03-18T09:44:24;101325.41;;;7.52;35.88
72798;BME280;61084;55.816;37.036;2023-03-18T09:47:05;101330.56;;;7.63;39.54
72798;BME280;61084;55.816;37.036;2023-03-18T09:49:54;101327.13;;;7.56;37.38
72798;BME280;61084;55.816;37.036;2023-03-18T09:55:23;101324.38;;;7.72;36.88
72798;BME280;61084;55.816;37.036;2023-03-18T09:57:53;101316.50;;;7.73;37.77
72798;BME280;61084;55.816;37.036;2023-03-18T10:00:28;101311.22;;;7.78;37.14
72798;BME280;61084;55.816;37.036;2023-03-18T10:03:09;101305.00;;;7.89;36.97
72798;BME280;61084;55.816;37.036;2023-03-18T10:05:48;101299.66;;;7.97;38.96
72798;BME280;61084;55.816;37.036;2023-03-18T10:08:43;101302.22;;;8.01;36.11
72798;BME280;61084;55.816;37.036;2023-03-18T10:11:21;101301.28;;;8.08;37.24
72798;BME280;61084;55.816;37.036;2023-03-18T10:19:22;101302.94;;;8.14;36.78
72798;BME280;61084;55.816;37.036;2023-03-18T10:24:54;101296.59;;;8.33;36.87
72798;BME280;61084;55.816;37.036;2023-03-18T10:35:40;101285.81;;;8.59;35.47
72798;BME280;61084;55.816;37.036;2023-03-18T10:38:19;101283.84;;;8.71;36.48
72798;BME280;61084;55.816;37.036;2023-03-18T10:40:51;101279.44;;;8.75;35.92
72798;BME280;61084;55.816;37.036;2023-03-18T10:43:21;101280.25;;;8.77;34.08
72798;BME280;61084;55.816;37.036;2023-03-18T10:45:57;101278.53;;;8.77;35.51
72798;BME280;61084;55.816;37.036;2023-03-18T10:48:55;101272.44;;;8.75;34.75
72798;BME280;61084;55.816;37.036;2023-03-18T10:51:48;101273.25;;;8.80;33.62
72798;BME280;61084;55.816;37.036;2023-03-18T10:56:42;101267.09;;;8.83;36.78
72798;BME280;61084;55.816;37.036;2023-03-18T10:59:14;101259.91;;;8.95;34.94
72798;BME280;61084;55.816;37.036;2023-03-18T11:01:44;101263.19;;;9.08;36.31
72798;BME280;61084;55.816;37.036;2023-03-18T11:04:14;101262.22;;;9.12;35.09
72798;BME280;61084;55.816;37.036;2023-03-18T11:06:47;101264.69;;;9.21;34.50
72798;BME280;61084;55.816;37.036;2023-03-18T11:09:19;101261.00;;;9.31;34.64
72798;BME280;61084;55.816;37.036;2023-03-18T11:11:54;101257.41;;;9.38;36.79
72798;BME280;61084;55.816;37.036;2023-03-18T11:14:28;101256.47;;;9.41;34.82
72798;BME280;61084;55.816;37.036;2023-03-18T11:16:57;101251.13;;;9.47;36.52
72798;BME280;61084;55.816;37.036;2023-03-18T11:19:44;101241.66;;;9.38;35.01
72798;BME280;61084;55.816;37.036;2023-03-18T11:22:24;101250.47;;;9.34;34.57
72798;BME280;61084;55.816;37.036;2023-03-18T11:25:14;101249.56;;;9.35;30.93
72798;BME280;61084;55.816;37.036;2023-03-18T11:27:49;101250.38;;;9.40;33.16
72798;BME280;61084;55.816;37.036;2023-03-18T11:35:53;101235.97;;;9.62;33.61
72798;BME280;61084;55.816;37.036;2023-03-18T11:38:30;101234.00;;;9.73;33.73
72798;BME280;61084;55.816;37.036;2023-03-18T11:41:14;101237.31;;;9.81;32.38
72798;BME280;61084;55.816;37.036;2023-03-18T11:43:54;101233.81;;;9.81;31.29
72798;BME280;61084;55.816;37.036;2023-03-18T11:46:25;101226.78;;;9.83;32.75
72798;BME280;61084;55.816;37.036;2023-03-18T11:49:05;101230.41;;;9.77;32.13
72798;BME280;61084;55.816;37.036;2023-03-18T12:02:25;101229.16;;;10.36;34.08
72798;BME280;61084;55.816;37.036;2023-03-18T12:05:29;101221.34;;;10.33;34.46
72798;BME280;61084;55.816;37.036;2023-03-18T12:16:49;101217.91;;;10.31;33.40
72798;BME280;61084;55.816;37.036;2023-03-18T12:23:02;101211.66;;;10.35;33.08
72798;BME280;61084;55.816;37.036;2023-03-18T12:34:10;101198.38;;;10.03;32.85
72798;BME280;61084;55.816;37.036;2023-03-18T12:37:05;101194.88;;;10.04;33.83
72798;BME280;61084;55.816;37.036;2023-03-18T12:42:53;101178.34;;;9.99;32.74
72798;BME280;61084;55.816;37.036;2023-03-18T12:45:34;101187.53;;;10.21;32.43
72798;BME280;61084;55.816;37.036;2023-03-18T12:51:21;101186.75;;;10.18;34.58
72798;BME280;61084;55.816;37.036;2023-03-18T12:53:53;101175.53;;;10.11;33.71
72798;BME280;61084;55.816;37.036;2023-03-18T12:56:26;101184.94;;;10.18;33.21
72798;BME280;61084;55.816;37.036;2023-03-18T12:59:04;101189.22;;;10.22;33.57
72798;BME280;61084;55.816;37.036;2023-03-18T13:04:32;101172.28;;;10.37;31.83
72798;BME280;61084;55.816;37.036;2023-03-18T13:12:36;101163.94;;;10.56;32.14
72798;BME280;61084;55.816;37.036;2023-03-18T13:18:04;101161.91;;;10.66;32.53
72798;BME280;61084;55.816;37.036;2023-03-18T13:20:38;101155.81;;;10.66;31.36
72798;BME280;61084;55.816;37.036;2023-03-18T13:23:15;101168.81;;;10.70;31.90
72798;BME280;61084;55.816;37.036;2023-03-18T13:31:36;101161.44;;;10.50;31.02
72798;BME280;61084;55.816;37.036;2023-03-18T13:34:12;101155.84;;;10.29;31.87
72798;BME280;61084;55.816;37.036;2023-03-18T13:42:11;101147.56;;;10.09;32.22
72798;BME280;61084;55.816;37.036;2023-03-18T13:44:45;101144.03;;;10.11;31.77
72798;BME280;61084;55.816;37.036;2023-03-18T13:47:17;101148.16;;;10.21;31.91
72798;BME280;61084;55.816;37.036;2023-03-18T13:50:02;101131.44;;;10.25;31.20
72798;BME280;61084;55.816;37.036;2023-03-18T13:52:57;101136.56;;;10.30;31.89
72798;BME280;61084;55.816;37.036;2023-03-18T13:55:39;101128.59;;;10.34;32.02
72798;BME280;61084;55.816;37.036;2023-03-18T14:12:14;101120.44;;;10.08;31.79
72798;BME280;61084;55.816;37.036;2023-03-18T14:20:41;101125.69;;;9.70;32.77
72798;BME280;61084;55.816;37.036;2023-03-18T14:23:27;101118.94;;;9.58;31.42
72798;BME280;61084;55.816;37.036;2023-03-18T14:29:01;101111.47;;;9.40;30.99
72798;BME280;61084;55.816;37.036;2023-03-18T14:36:47;101117.50;;;9.02;32.67
72798;BME280;61084;55.816;37.036;2023-03-18T14:39:39;101110.00;;;8.83;32.14
72798;BME280;61084;55.816;37.036;2023-03-18T14:42:24;101115.47;;;8.68;31.87
72798;BME280;61084;55.816;37.036;2023-03-18T14:45:31;101114.91;;;8.51;31.93
72798;BME280;61084;55.816;37.036;2023-03-18T14:48:19;101106.50;;;8.33;31.73
72798;BME280;61084;55.816;37.036;2023-03-18T14:50:51;101114.44;;;8.27;32.73
72798;BME280;61084;55.816;37.036;2023-03-18T14:53:38;101106.66;;;8.20;32.10
72798;BME280;61084;55.816;37.036;2023-03-18T14:56:22;101106.81;;;8.12;31.83
72798;BME280;61084;55.816;37.036;2023-03-18T14:58:51;101100.00;;;8.01;33.32
72798;BME280;61084;55.816;37.036;2023-03-18T15:01:27;101106.38;;;7.85;31.15
72798;BME280;61084;55.816;37.036;2023-03-18T15:03:58;101104.84;;;7.69;32.06
72798;BME280;61084;55.816;37.036;2023-03-18T15:06:25;101099.72;;;7.63;32.24
72798;BME280;61084;55.816;37.036;2023-03-18T15:09:06;101098.13;;;7.51;32.34
72798;BME280;61084;55.816;37.036;2023-03-18T15:11:39;101098.25;;;7.43;32.22
72798;BME280;61084;55.816;37.036;2023-03-18T15:16:55;101101.81;;;7.33;32.91
72798;BME280;61084;55.816;37.036;2023-03-18T15:19:23;101100.19;;;7.26;32.02
72798;BME280;61084;55.816;37.036;2023-03-18T15:21:49;101092.50;;;7.14;32.14